Kensett, Iowa
Current Conditions -  °F | °C
As of 8:53 PM on Sunday 23 Nov 2014 (Local Time) from KMCW Reporting Station
Overcast Overcast  
Wind Chill: 26°   Ceiling: 4400
Heat Index: 37°   Visibility: 10mi
Dew Point: 34°   Wind: 23mph
Humidity: 89%   Direction: 320°NW
Pressure: 29.36"   Gusts: 31mph
Location:  43.35°N, 93.21°W
Report Text: KMCW 240253Z AUTO 32020G27KT 10SM FEW017 SCT025 OVC044 03/01 A2936 RMK AO2 PK WND 32032/0155 RAE21 SLP941 P0000 60000 T00280011 56008
Loading
Personal Weather Stations






























Interactive Weather Map New forecast layout! Learn more

10-Day Weather Forecast

Advertisements
Track Severe Weather on mobile